sensor_id;sensor_type;location;lat;lon;timestamp;temperature;humidity
32865;DHT22;19219;44.500;11.188;2023-08-06T00:00:25;17.10;99.90
32865;DHT22;19219;44.500;11.188;2023-08-06T00:02:51;17.10;99.90
32865;DHT22;19219;44.500;11.188;2023-08-06T00:05:17;17.00;99.90
32865;DHT22;19219;44.500;11.188;2023-08-06T00:07:48;17.00;99.90
32865;DHT22;19219;44.500;11.188;2023-08-06T00:10:15;16.90;99.90
32865;DHT22;19219;44.500;11.188;2023-08-06T00:12:40;16.80;99.90
32865;DHT22;19219;44.500;11.188;2023-08-06T00:15:07;16.80;99.90
32865;DHT22;19219;44.500;11.188;2023-08-06T00:17:33;16.70;99.90
32865;DHT22;19219;44.500;11.188;2023-08-06T00:19:59;16.70;99.90
32865;DHT22;19219;44.500;11.188;2023-08-06T00:22:30;16.70;99.90
32865;DHT22;19219;44.500;11.188;2023-08-06T00:24:56;16.60;99.90
32865;DHT22;19219;44.500;11.188;2023-08-06T00:27:23;16.50;99.90
32865;DHT22;19219;44.500;11.188;2023-08-06T00:29:48;16.50;99.90
32865;DHT22;19219;44.500;11.188;2023-08-06T00:32:14;16.50;99.90
32865;DHT22;19219;44.500;11.188;2023-08-06T00:34:39;16.50;99.90
32865;DHT22;19219;44.500;11.188;2023-08-06T00:37:05;16.60;99.90
32865;DHT22;19219;44.500;11.188;2023-08-06T00:39:31;16.60;99.90
32865;DHT22;19219;44.500;11.188;2023-08-06T00:41:57;16.60;99.90
32865;DHT22;19219;44.500;11.188;2023-08-06T00:44:23;16.50;99.90
32865;DHT22;19219;44.500;11.188;2023-08-06T00:46:49;16.40;99.90
32865;DHT22;19219;44.500;11.188;2023-08-06T00:49:15;16.30;99.90
32865;DHT22;19219;44.500;11.188;2023-08-06T00:51:42;16.30;99.90
32865;DHT22;19219;44.500;11.188;2023-08-06T00:54:09;16.30;99.90
32865;DHT22;19219;44.500;11.188;2023-08-06T00:56:35;16.30;99.90
32865;DHT22;19219;44.500;11.188;2023-08-06T00:59:05;16.30;99.90
32865;DHT22;19219;44.500;11.188;2023-08-06T01:01:31;16.30;99.90
32865;DHT22;19219;44.500;11.188;2023-08-06T01:03:57;16.40;99.90
32865;DHT22;19219;44.500;11.188;2023-08-06T01:07:05;16.50;99.90
32865;DHT22;19219;44.500;11.188;2023-08-06T01:12:48;16.60;99.90
32865;DHT22;19219;44.500;11.188;2023-08-06T01:15:23;16.60;99.90
32865;DHT22;19219;44.500;11.188;2023-08-06T01:17:50;16.50;99.90
32865;DHT22;19219;44.500;11.188;2023-08-06T01:20:16;16.60;99.90
32865;DHT22;19219;44.500;11.188;2023-08-06T01:22:41;16.60;99.90
32865;DHT22;19219;44.500;11.188;2023-08-06T01:25:08;16.60;99.90
32865;DHT22;19219;44.500;11.188;2023-08-06T01:27:43;16.50;99.90
32865;DHT22;19219;44.500;11.188;2023-08-06T01:30:16;16.40;99.90
32865;DHT22;19219;44.500;11.188;2023-08-06T01:32:44;16.30;99.90
32865;DHT22;19219;44.500;11.188;2023-08-06T01:35:14;16.20;99.90
32865;DHT22;19219;44.500;11.188;2023-08-06T01:37:41;16.20;99.90
32865;DHT22;19219;44.500;11.188;2023-08-06T01:40:11;16.30;99.90
32865;DHT22;19219;44.500;11.188;2023-08-06T01:42:39;16.30;99.90
32865;DHT22;19219;44.500;11.188;2023-08-06T01:45:09;16.30;99.90
32865;DHT22;19219;44.500;11.188;2023-08-06T01:47:35;16.30;99.90
32865;DHT22;19219;44.500;11.188;2023-08-06T01:50:01;16.30;99.90
32865;DHT22;19219;44.500;11.188;2023-08-06T01:52:27;16.30;99.90
32865;DHT22;19219;44.500;11.188;2023-08-06T01:54:54;16.30;99.90
32865;DHT22;19219;44.500;11.188;2023-08-06T01:57:19;16.20;99.90
32865;DHT22;19219;44.500;11.188;2023-08-06T01:59:45;16.10;99.90
32865;DHT22;19219;44.500;11.188;2023-08-06T02:02:10;16.00;99.90
32865;DHT22;19219;44.500;11.188;2023-08-06T02:04:36;16.00;99.90
32865;DHT22;19219;44.500;11.188;2023-08-06T02:07:03;16.00;99.90
32865;DHT22;19219;44.500;11.188;2023-08-06T02:09:29;16.00;99.90
32865;DHT22;19219;44.500;11.188;2023-08-06T02:11:55;16.00;99.90
32865;DHT22;19219;44.500;11.188;2023-08-06T02:14:20;16.00;99.90
32865;DHT22;19219;44.500;11.188;2023-08-06T02:16:46;16.00;99.90
32865;DHT22;19219;44.500;11.188;2023-08-06T02:19:12;16.00;99.90
32865;DHT22;19219;44.500;11.188;2023-08-06T02:21:37;16.00;99.90
32865;DHT22;19219;44.500;11.188;2023-08-06T02:24:03;16.00;99.90
32865;DHT22;19219;44.500;11.188;2023-08-06T02:26:29;15.90;99.90
32865;DHT22;19219;44.500;11.188;2023-08-06T02:28:55;15.90;99.90
32865;DHT22;19219;44.500;11.188;2023-08-06T02:31:20;15.90;99.90
32865;DHT22;19219;44.500;11.188;2023-08-06T02:33:46;15.90;99.90
32865;DHT22;19219;44.500;11.188;2023-08-06T02:36:12;15.90;99.90
32865;DHT22;19219;44.500;11.188;2023-08-06T02:38:38;16.00;99.90
32865;DHT22;19219;44.500;11.188;2023-08-06T02:41:04;16.00;99.90
32865;DHT22;19219;44.500;11.188;2023-08-06T02:43:30;16.00;99.90
32865;DHT22;19219;44.500;11.188;2023-08-06T02:45:59;16.00;99.90
32865;DHT22;19219;44.500;11.188;2023-08-06T02:48:25;16.00;99.90
32865;DHT22;19219;44.500;11.188;2023-08-06T02:50:51;16.00;99.90
32865;DHT22;19219;44.500;11.188;2023-08-06T02:53:17;16.00;99.90
32865;DHT22;19219;44.500;11.188;2023-08-06T02:55:46;16.00;99.90
32865;DHT22;19219;44.500;11.188;2023-08-06T02:58:16;16.00;99.90
32865;DHT22;19219;44.500;11.188;2023-08-06T03:00:43;16.00;99.90
32865;DHT22;19219;44.500;11.188;2023-08-06T03:03:15;16.10;99.90
32865;DHT22;19219;44.500;11.188;2023-08-06T03:05:41;16.10;99.90
32865;DHT22;19219;44.500;11.188;2023-08-06T03:08:16;16.20;99.90
32865;DHT22;19219;44.500;11.188;2023-08-06T03:10:42;16.30;99.90
32865;DHT22;19219;44.500;11.188;2023-08-06T03:13:07;16.30;99.90
32865;DHT22;19219;44.500;11.188;2023-08-06T03:15:33;16.30;99.90
32865;DHT22;19219;44.500;11.188;2023-08-06T03:18:00;16.30;99.90
32865;DHT22;19219;44.500;11.188;2023-08-06T03:20:26;16.40;99.90
32865;DHT22;19219;44.500;11.188;2023-08-06T03:22:51;16.40;99.90
32865;DHT22;19219;44.500;11.188;2023-08-06T03:25:17;16.40;99.90
32865;DHT22;19219;44.500;11.188;2023-08-06T03:27:43;16.40;99.90
32865;DHT22;19219;44.500;11.188;2023-08-06T03:30:09;16.50;99.90
32865;DHT22;19219;44.500;11.188;2023-08-06T03:32:35;16.50;99.90
32865;DHT22;19219;44.500;11.188;2023-08-06T03:35:00;16.40;99.90
32865;DHT22;19219;44.500;11.188;2023-08-06T03:37:26;16.40;99.90
32865;DHT22;19219;44.500;11.188;2023-08-06T03:39:52;16.40;99.90
32865;DHT22;19219;44.500;11.188;2023-08-06T03:42:17;16.40;99.90
32865;DHT22;19219;44.500;11.188;2023-08-06T03:44:43;16.30;99.90
32865;DHT22;19219;44.500;11.188;2023-08-06T03:47:08;16.20;99.90
32865;DHT22;19219;44.500;11.188;2023-08-06T03:49:34;16.20;99.90
32865;DHT22;19219;44.500;11.188;2023-08-06T03:52:00;16.20;99.90
32865;DHT22;19219;44.500;11.188;2023-08-06T03:54:26;16.30;99.90
32865;DHT22;19219;44.500;11.188;2023-08-06T03:56:51;16.30;99.90
32865;DHT22;19219;44.500;11.188;2023-08-06T03:59:17;16.40;99.90
32865;DHT22;19219;44.500;11.188;2023-08-06T04:01:43;16.40;99.90
32865;DHT22;19219;44.500;11.188;2023-08-06T04:04:08;16.50;99.90
32865;DHT22;19219;44.500;11.188;2023-08-06T04:06:34;16.50;99.90
32865;DHT22;19219;44.500;11.188;2023-08-06T04:08:59;16.60;99.90
32865;DHT22;19219;44.500;11.188;2023-08-06T04:11:25;16.60;99.90
32865;DHT22;19219;44.500;11.188;2023-08-06T04:13:51;16.60;99.90
32865;DHT22;19219;44.500;11.188;2023-08-06T04:16:16;16.60;99.90
32865;DHT22;19219;44.500;11.188;2023-08-06T04:18:42;16.50;99.90
32865;DHT22;19219;44.500;11.188;2023-08-06T04:21:08;16.40;99.90
32865;DHT22;19219;44.500;11.188;2023-08-06T04:23:33;16.40;99.90
32865;DHT22;19219;44.500;11.188;2023-08-06T04:25:59;16.50;99.90
32865;DHT22;19219;44.500;11.188;2023-08-06T04:28:25;16.40;99.90
32865;DHT22;19219;44.500;11.188;2023-08-06T04:30:50;16.50;99.90
32865;DHT22;19219;44.500;11.188;2023-08-06T04:33:16;16.60;99.90
32865;DHT22;19219;44.500;11.188;2023-08-06T04:35:41;16.60;99.90
32865;DHT22;19219;44.500;11.188;2023-08-06T04:38:07;16.50;99.90
32865;DHT22;19219;44.500;11.188;2023-08-06T04:40:35;16.60;99.90
32865;DHT22;19219;44.500;11.188;2023-08-06T04:43:01;16.60;99.90
32865;DHT22;19219;44.500;11.188;2023-08-06T04:45:26;16.60;99.90
32865;DHT22;19219;44.500;11.188;2023-08-06T04:47:52;16.80;99.90
32865;DHT22;19219;44.500;11.188;2023-08-06T04:50:19;16.90;99.90
32865;DHT22;19219;44.500;11.188;2023-08-06T04:52:45;17.00;99.90
32865;DHT22;19219;44.500;11.188;2023-08-06T04:55:10;17.10;99.90
32865;DHT22;19219;44.500;11.188;2023-08-06T04:57:36;17.20;99.90
32865;DHT22;19219;44.500;11.188;2023-08-06T05:00:02;17.30;99.90
32865;DHT22;19219;44.500;11.188;2023-08-06T05:02:28;17.40;99.90
32865;DHT22;19219;44.500;11.188;2023-08-06T05:04:53;17.60;99.90
32865;DHT22;19219;44.500;11.188;2023-08-06T05:07:19;17.70;99.90
32865;DHT22;19219;44.500;11.188;2023-08-06T05:09:45;17.80;99.90
32865;DHT22;19219;44.500;11.188;2023-08-06T05:12:10;17.90;99.90
32865;DHT22;19219;44.500;11.188;2023-08-06T05:14:36;18.10;99.90
32865;DHT22;19219;44.500;11.188;2023-08-06T05:17:02;18.20;99.90
32865;DHT22;19219;44.500;11.188;2023-08-06T05:19:29;18.30;99.90
32865;DHT22;19219;44.500;11.188;2023-08-06T05:21:55;18.30;99.90
32865;DHT22;19219;44.500;11.188;2023-08-06T05:24:21;18.20;99.90
32865;DHT22;19219;44.500;11.188;2023-08-06T05:26:49;18.20;99.90
32865;DHT22;19219;44.500;11.188;2023-08-06T05:29:16;18.20;99.90
32865;DHT22;19219;44.500;11.188;2023-08-06T05:31:42;18.20;99.90
32865;DHT22;19219;44.500;11.188;2023-08-06T05:34:07;18.30;99.90
32865;DHT22;19219;44.500;11.188;2023-08-06T05:36:33;18.40;99.90
32865;DHT22;19219;44.500;11.188;2023-08-06T05:38:59;18.50;99.90
32865;DHT22;19219;44.500;11.188;2023-08-06T05:41:24;18.60;99.90
32865;DHT22;19219;44.500;11.188;2023-08-06T05:43:50;18.70;99.90
32865;DHT22;19219;44.500;11.188;2023-08-06T05:46:16;18.80;99.90
32865;DHT22;19219;44.500;11.188;2023-08-06T05:48:41;19.00;99.90
32865;DHT22;19219;44.500;11.188;2023-08-06T05:51:07;19.10;99.90
32865;DHT22;19219;44.500;11.188;2023-08-06T05:53:33;19.30;99.90
32865;DHT22;19219;44.500;11.188;2023-08-06T05:55:59;19.50;99.90
32865;DHT22;19219;44.500;11.188;2023-08-06T05:58:24;19.70;99.90
32865;DHT22;19219;44.500;11.188;2023-08-06T06:00:51;19.90;99.90
32865;DHT22;19219;44.500;11.188;2023-08-06T06:03:17;20.10;99.90
32865;DHT22;19219;44.500;11.188;2023-08-06T06:05:43;20.20;99.90
32865;DHT22;19219;44.500;11.188;2023-08-06T06:08:08;20.40;99.90
32865;DHT22;19219;44.500;11.188;2023-08-06T06:10:35;20.60;99.90
32865;DHT22;19219;44.500;11.188;2023-08-06T06:13:01;20.70;99.90
32865;DHT22;19219;44.500;11.188;2023-08-06T06:15:26;20.80;99.90
32865;DHT22;19219;44.500;11.188;2023-08-06T06:17:52;20.90;99.90
32865;DHT22;19219;44.500;11.188;2023-08-06T06:20:18;21.10;99.90
32865;DHT22;19219;44.500;11.188;2023-08-06T06:22:43;21.30;99.90
32865;DHT22;19219;44.500;11.188;2023-08-06T06:25:09;21.70;99.90
32865;DHT22;19219;44.500;11.188;2023-08-06T06:27:36;22.30;99.90
32865;DHT22;19219;44.500;11.188;2023-08-06T06:30:02;23.40;99.90
32865;DHT22;19219;44.500;11.188;2023-08-06T06:32:28;25.60;99.90
32865;DHT22;19219;44.500;11.188;2023-08-06T06:34:54;28.30;99.90
32865;DHT22;19219;44.500;11.188;2023-08-06T06:37:19;29.20;99.90
32865;DHT22;19219;44.500;11.188;2023-08-06T06:39:45;29.20;99.90
32865;DHT22;19219;44.500;11.188;2023-08-06T06:42:11;28.60;99.90
32865;DHT22;19219;44.500;11.188;2023-08-06T06:44:36;28.00;99.90
32865;DHT22;19219;44.500;11.188;2023-08-06T06:47:02;27.40;99.90
32865;DHT22;19219;44.500;11.188;2023-08-06T06:49:28;27.20;99.90
32865;DHT22;19219;44.500;11.188;2023-08-06T06:51:54;27.00;99.90
32865;DHT22;19219;44.500;11.188;2023-08-06T06:54:19;27.10;99.90
32865;DHT22;19219;44.500;11.188;2023-08-06T06:56:45;27.20;99.90
32865;DHT22;19219;44.500;11.188;2023-08-06T06:59:11;27.30;99.90
32865;DHT22;19219;44.500;11.188;2023-08-06T07:01:36;27.40;99.90
32865;DHT22;19219;44.500;11.188;2023-08-06T07:04:02;27.50;99.90
32865;DHT22;19219;44.500;11.188;2023-08-06T07:06:30;27.60;99.90
32865;DHT22;19219;44.500;11.188;2023-08-06T07:08:56;27.90;99.90
32865;DHT22;19219;44.500;11.188;2023-08-06T07:11:22;28.00;99.90
32865;DHT22;19219;44.500;11.188;2023-08-06T07:13:49;28.20;99.90
32865;DHT22;19219;44.500;11.188;2023-08-06T07:16:15;28.30;99.90
32865;DHT22;19219;44.500;11.188;2023-08-06T07:18:40;28.40;99.90
32865;DHT22;19219;44.500;11.188;2023-08-06T07:21:06;28.60;99.90
32865;DHT22;19219;44.500;11.188;2023-08-06T07:23:32;28.70;99.90
32865;DHT22;19219;44.500;11.188;2023-08-06T07:25:58;29.00;99.90
32865;DHT22;19219;44.500;11.188;2023-08-06T07:28:23;29.10;99.90
32865;DHT22;19219;44.500;11.188;2023-08-06T07:30:50;29.20;99.90
32865;DHT22;19219;44.500;11.188;2023-08-06T07:33:15;29.40;99.90
32865;DHT22;19219;44.500;11.188;2023-08-06T07:35:41;29.30;99.90
32865;DHT22;19219;44.500;11.188;2023-08-06T07:38:08;29.40;99.90
32865;DHT22;19219;44.500;11.188;2023-08-06T07:40:35;29.10;99.90
32865;DHT22;19219;44.500;11.188;2023-08-06T07:43:02;29.30;99.90
32865;DHT22;19219;44.500;11.188;2023-08-06T07:45:28;29.30;99.90
32865;DHT22;19219;44.500;11.188;2023-08-06T07:47:53;29.10;99.90
32865;DHT22;19219;44.500;11.188;2023-08-06T07:50:19;28.90;99.90
32865;DHT22;19219;44.500;11.188;2023-08-06T07:52:45;29.20;99.90
32865;DHT22;19219;44.500;11.188;2023-08-06T07:55:10;29.50;99.90
32865;DHT22;19219;44.500;11.188;2023-08-06T07:57:36;29.40;99.90
32865;DHT22;19219;44.500;11.188;2023-08-06T08:00:03;29.50;99.90
32865;DHT22;19219;44.500;11.188;2023-08-06T08:02:30;29.60;99.90
32865;DHT22;19219;44.500;11.188;2023-08-06T08:04:55;29.40;99.90
32865;DHT22;19219;44.500;11.188;2023-08-06T08:07:21;29.40;99.90
32865;DHT22;19219;44.500;11.188;2023-08-06T08:09:47;29.60;99.90
32865;DHT22;19219;44.500;11.188;2023-08-06T08:12:14;29.60;99.90
32865;DHT22;19219;44.500;11.188;2023-08-06T08:14:39;29.70;99.80
32865;DHT22;19219;44.500;11.188;2023-08-06T08:17:05;29.60;99.50
32865;DHT22;19219;44.500;11.188;2023-08-06T08:19:32;29.80;99.90
32865;DHT22;19219;44.500;11.188;2023-08-06T08:21:58;30.00;99.60
32865;DHT22;19219;44.500;11.188;2023-08-06T08:24:24;29.70;98.30
32865;DHT22;19219;44.500;11.188;2023-08-06T08:26:52;29.60;99.90
32865;DHT22;19219;44.500;11.188;2023-08-06T08:29:19;29.60;98.70
32865;DHT22;19219;44.500;11.188;2023-08-06T08:31:46;29.70;99.70
32865;DHT22;19219;44.500;11.188;2023-08-06T08:34:14;29.90;98.60
32865;DHT22;19219;44.500;11.188;2023-08-06T08:36:40;30.00;97.80
32865;DHT22;19219;44.500;11.188;2023-08-06T08:39:06;30.10;98.00
32865;DHT22;19219;44.500;11.188;2023-08-06T08:41:33;30.30;95.90
32865;DHT22;19219;44.500;11.188;2023-08-06T08:43:59;30.60;95.90
32865;DHT22;19219;44.500;11.188;2023-08-06T08:46:36;30.60;95.20
32865;DHT22;19219;44.500;11.188;2023-08-06T08:49:04;30.40;95.80
32865;DHT22;19219;44.500;11.188;2023-08-06T08:51:31;30.60;96.60
32865;DHT22;19219;44.500;11.188;2023-08-06T08:53:57;30.70;96.70
32865;DHT22;19219;44.500;11.188;2023-08-06T08:56:23;30.90;95.40
32865;DHT22;19219;44.500;11.188;2023-08-06T08:58:49;31.00;95.00
32865;DHT22;19219;44.500;11.188;2023-08-06T09:01:16;31.00;93.90
32865;DHT22;19219;44.500;11.188;2023-08-06T09:03:43;30.70;93.70
32865;DHT22;19219;44.500;11.188;2023-08-06T09:06:11;30.80;94.60
32865;DHT22;19219;44.500;11.188;2023-08-06T09:08:41;30.90;92.40
32865;DHT22;19219;44.500;11.188;2023-08-06T09:11:09;31.00;91.00
32865;DHT22;19219;44.500;11.188;2023-08-06T09:13:38;31.10;90.00
32865;DHT22;19219;44.500;11.188;2023-08-06T09:16:04;31.10;91.80
32865;DHT22;19219;44.500;11.188;2023-08-06T09:18:30;31.00;92.80
32865;DHT22;19219;44.500;11.188;2023-08-06T09:20:57;30.90;90.30
32865;DHT22;19219;44.500;11.188;2023-08-06T09:23:32;31.20;90.30
32865;DHT22;19219;44.500;11.188;2023-08-06T09:25:59;31.20;92.20
32865;DHT22;19219;44.500;11.188;2023-08-06T09:28:39;30.90;90.60
32865;DHT22;19219;44.500;11.188;2023-08-06T09:31:08;30.90;90.00
32865;DHT22;19219;44.500;11.188;2023-08-06T09:33:36;30.90;91.30
32865;DHT22;19219;44.500;11.188;2023-08-06T09:36:11;30.90;90.10
32865;DHT22;19219;44.500;11.188;2023-08-06T09:38:41;31.00;88.70
32865;DHT22;19219;44.500;11.188;2023-08-06T09:41:07;31.20;91.60
32865;DHT22;19219;44.500;11.188;2023-08-06T09:43:43;31.00;91.00
32865;DHT22;19219;44.500;11.188;2023-08-06T09:46:15;30.90;90.60
32865;DHT22;19219;44.500;11.188;2023-08-06T09:48:45;30.90;91.20
32865;DHT22;19219;44.500;11.188;2023-08-06T09:51:13;31.00;91.30
32865;DHT22;19219;44.500;11.188;2023-08-06T09:53:40;30.90;91.60
32865;DHT22;19219;44.500;11.188;2023-08-06T09:56:07;30.70;92.10
32865;DHT22;19219;44.500;11.188;2023-08-06T09:58:35;30.70;92.10
32865;DHT22;19219;44.500;11.188;2023-08-06T10:01:02;30.80;92.00
32865;DHT22;19219;44.500;11.188;2023-08-06T10:03:29;31.00;90.90
32865;DHT22;19219;44.500;11.188;2023-08-06T10:05:56;31.00;89.30
32865;DHT22;19219;44.500;11.188;2023-08-06T10:08:23;30.90;90.70
32865;DHT22;19219;44.500;11.188;2023-08-06T10:10:49;30.80;90.60
32865;DHT22;19219;44.500;11.188;2023-08-06T10:13:15;30.70;89.50
32865;DHT22;19219;44.500;11.188;2023-08-06T10:15:42;30.60;91.20
32865;DHT22;19219;44.500;11.188;2023-08-06T10:18:08;30.60;91.30
32865;DHT22;19219;44.500;11.188;2023-08-06T10:20:35;30.50;89.90
32865;DHT22;19219;44.500;11.188;2023-08-06T10:23:05;30.50;90.80
32865;DHT22;19219;44.500;11.188;2023-08-06T10:25:39;30.50;90.80
32865;DHT22;19219;44.500;11.188;2023-08-06T10:28:10;30.70;92.30
32865;DHT22;19219;44.500;11.188;2023-08-06T10:30:45;30.80;91.80
32865;DHT22;19219;44.500;11.188;2023-08-06T10:33:11;30.90;91.90
32865;DHT22;19219;44.500;11.188;2023-08-06T10:35:42;30.60;91.40
32865;DHT22;19219;44.500;11.188;2023-08-06T10:43:27;30.20;90.60
32865;DHT22;19219;44.500;11.188;2023-08-06T10:45:53;30.30;91.70
32865;DHT22;19219;44.500;11.188;2023-08-06T10:48:36;30.00;90.90
32865;DHT22;19219;44.500;11.188;2023-08-06T10:51:03;30.10;92.20
32865;DHT22;19219;44.500;11.188;2023-08-06T10:53:30;30.30;92.50
32865;DHT22;19219;44.500;11.188;2023-08-06T10:55:55;30.30;92.00
32865;DHT22;19219;44.500;11.188;2023-08-06T10:58:21;30.30;92.90
32865;DHT22;19219;44.500;11.188;2023-08-06T11:00:47;30.30;92.80
32865;DHT22;19219;44.500;11.188;2023-08-06T11:03:12;30.30;92.80
32865;DHT22;19219;44.500;11.188;2023-08-06T11:05:48;30.30;92.50
32865;DHT22;19219;44.500;11.188;2023-08-06T11:08:26;30.40;91.60
32865;DHT22;19219;44.500;11.188;2023-08-06T11:10:52;30.50;90.90
32865;DHT22;19219;44.500;11.188;2023-08-06T11:13:18;30.40;90.30
32865;DHT22;19219;44.500;11.188;2023-08-06T11:15:45;30.20;90.40
32865;DHT22;19219;44.500;11.188;2023-08-06T11:18:11;29.90;89.30
32865;DHT22;19219;44.500;11.188;2023-08-06T11:20:39;29.70;86.90
32865;DHT22;19219;44.500;11.188;2023-08-06T11:23:05;29.80;84.60
32865;DHT22;19219;44.500;11.188;2023-08-06T11:25:36;29.70;83.90
32865;DHT22;19219;44.500;11.188;2023-08-06T11:28:02;29.70;85.50
32865;DHT22;19219;44.500;11.188;2023-08-06T11:30:28;29.70;87.30
32865;DHT22;19219;44.500;11.188;2023-08-06T11:32:53;29.80;84.00
32865;DHT22;19219;44.500;11.188;2023-08-06T11:35:19;29.80;82.10
32865;DHT22;19219;44.500;11.188;2023-08-06T11:37:45;29.80;81.40
32865;DHT22;19219;44.500;11.188;2023-08-06T11:40:11;30.00;82.60
32865;DHT22;19219;44.500;11.188;2023-08-06T11:42:37;30.10;83.60
32865;DHT22;19219;44.500;11.188;2023-08-06T11:45:04;30.00;78.30
32865;DHT22;19219;44.500;11.188;2023-08-06T11:47:30;29.90;77.40
32865;DHT22;19219;44.500;11.188;2023-08-06T11:49:56;29.90;77.70
32865;DHT22;19219;44.500;11.188;2023-08-06T11:52:23;29.90;77.20
32865;DHT22;19219;44.500;11.188;2023-08-06T11:57:38;30.00;76.90
32865;DHT22;19219;44.500;11.188;2023-08-06T12:00:11;29.90;72.40
32865;DHT22;19219;44.500;11.188;2023-08-06T12:02:39;30.00;72.50
32865;DHT22;19219;44.500;11.188;2023-08-06T12:07:38;30.00;70.60
32865;DHT22;19219;44.500;11.188;2023-08-06T12:10:05;30.10;69.00
32865;DHT22;19219;44.500;11.188;2023-08-06T12:12:30;30.10;69.90
32865;DHT22;19219;44.500;11.188;2023-08-06T12:14:56;30.10;70.40
32865;DHT22;19219;44.500;11.188;2023-08-06T12:17:23;30.00;63.20
32865;DHT22;19219;44.500;11.188;2023-08-06T12:19:49;29.80;59.60
32865;DHT22;19219;44.500;11.188;2023-08-06T12:22:16;29.80;59.30
32865;DHT22;19219;44.500;11.188;2023-08-06T12:24:46;29.80;58.50
32865;DHT22;19219;44.500;11.188;2023-08-06T12:27:12;29.80;59.50
32865;DHT22;19219;44.500;11.188;2023-08-06T12:29:41;29.70;56.80
32865;DHT22;19219;44.500;11.188;2023-08-06T12:32:08;29.70;56.50
32865;DHT22;19219;44.500;11.188;2023-08-06T12:34:34;29.80;57.40
32865;DHT22;19219;44.500;11.188;2023-08-06T12:36:59;29.60;56.70
32865;DHT22;19219;44.500;11.188;2023-08-06T12:39:25;29.60;57.90
32865;DHT22;19219;44.500;11.188;2023-08-06T12:41:54;29.80;58.00
32865;DHT22;19219;44.500;11.188;2023-08-06T12:44:21;29.80;57.60
32865;DHT22;19219;44.500;11.188;2023-08-06T12:46:46;29.80;59.30
32865;DHT22;19219;44.500;11.188;2023-08-06T12:49:12;29.80;56.20
32865;DHT22;19219;44.500;11.188;2023-08-06T12:51:37;29.80;56.70
32865;DHT22;19219;44.500;11.188;2023-08-06T12:54:04;29.80;56.20
32865;DHT22;19219;44.500;11.188;2023-08-06T12:56:29;29.80;56.10
32865;DHT22;19219;44.500;11.188;2023-08-06T12:58:55;30.10;58.00
32865;DHT22;19219;44.500;11.188;2023-08-06T13:01:21;30.00;54.80
32865;DHT22;19219;44.500;11.188;2023-08-06T13:03:46;30.20;56.40
32865;DHT22;19219;44.500;11.188;2023-08-06T13:06:12;30.20;55.20
32865;DHT22;19219;44.500;11.188;2023-08-06T13:08:37;30.20;54.40
32865;DHT22;19219;44.500;11.188;2023-08-06T13:11:04;30.30;56.10
32865;DHT22;19219;44.500;11.188;2023-08-06T13:13:30;30.50;54.50
32865;DHT22;19219;44.500;11.188;2023-08-06T13:15:56;30.50;54.30
32865;DHT22;19219;44.500;11.188;2023-08-06T13:18:21;30.60;55.20
32865;DHT22;19219;44.500;11.188;2023-08-06T13:20:47;30.50;52.60
32865;DHT22;19219;44.500;11.188;2023-08-06T13:23:15;30.50;52.80
32865;DHT22;19219;44.500;11.188;2023-08-06T13:25:42;30.60;54.00
32865;DHT22;19219;44.500;11.188;2023-08-06T13:28:08;30.60;52.80
32865;DHT22;19219;44.500;11.188;2023-08-06T13:30:33;30.60;51.20
32865;DHT22;19219;44.500;11.188;2023-08-06T13:33:01;30.60;52.80
32865;DHT22;19219;44.500;11.188;2023-08-06T13:35:27;30.50;51.60
32865;DHT22;19219;44.500;11.188;2023-08-06T13:37:52;30.50;51.30
32865;DHT22;19219;44.500;11.188;2023-08-06T13:40:19;30.60;52.40
32865;DHT22;19219;44.500;11.188;2023-08-06T13:42:45;30.60;52.30
32865;DHT22;19219;44.500;11.188;2023-08-06T13:45:11;30.60;51.70
32865;DHT22;19219;44.500;11.188;2023-08-06T13:47:36;30.70;52.20
32865;DHT22;19219;44.500;11.188;2023-08-06T13:50:02;30.70;51.10
32865;DHT22;19219;44.500;11.188;2023-08-06T13:52:29;30.60;49.20
32865;DHT22;19219;44.500;11.188;2023-08-06T13:54:54;30.60;50.00
32865;DHT22;19219;44.500;11.188;2023-08-06T13:57:20;30.60;49.90
32865;DHT22;19219;44.500;11.188;2023-08-06T13:59:46;30.60;50.90
32865;DHT22;19219;44.500;11.188;2023-08-06T14:02:11;30.80;53.20
32865;DHT22;19219;44.500;11.188;2023-08-06T14:04:37;30.90;51.60
32865;DHT22;19219;44.500;11.188;2023-08-06T14:07:03;30.80;49.90
32865;DHT22;19219;44.500;11.188;2023-08-06T14:09:29;30.70;49.90
32865;DHT22;19219;44.500;11.188;2023-08-06T14:11:55;30.70;50.40
32865;DHT22;19219;44.500;11.188;2023-08-06T14:14:21;30.80;50.30
32865;DHT22;19219;44.500;11.188;2023-08-06T14:16:52;30.80;50.70
32865;DHT22;19219;44.500;11.188;2023-08-06T14:19:19;31.00;51.80
32865;DHT22;19219;44.500;11.188;2023-08-06T14:21:45;31.00;50.30
32865;DHT22;19219;44.500;11.188;2023-08-06T14:24:10;31.00;49.50
32865;DHT22;19219;44.500;11.188;2023-08-06T14:26:36;30.90;49.40
32865;DHT22;19219;44.500;11.188;2023-08-06T14:29:02;31.00;50.40
32865;DHT22;19219;44.500;11.188;2023-08-06T14:31:28;31.10;50.70
32865;DHT22;19219;44.500;11.188;2023-08-06T14:33:54;31.00;50.10
32865;DHT22;19219;44.500;11.188;2023-08-06T14:36:20;31.00;49.10
32865;DHT22;19219;44.500;11.188;2023-08-06T14:38:46;31.10;49.80
32865;DHT22;19219;44.500;11.188;2023-08-06T14:41:11;31.20;50.20
32865;DHT22;19219;44.500;11.188;2023-08-06T14:43:37;31.10;50.50
32865;DHT22;19219;44.500;11.188;2023-08-06T14:46:03;31.00;49.50
32865;DHT22;19219;44.500;11.188;2023-08-06T14:48:29;31.00;49.80
32865;DHT22;19219;44.500;11.188;2023-08-06T14:50:55;31.00;49.00
32865;DHT22;19219;44.500;11.188;2023-08-06T14:53:21;31.00;50.00
32865;DHT22;19219;44.500;11.188;2023-08-06T14:55:47;31.00;50.30
32865;DHT22;19219;44.500;11.188;2023-08-06T14:58:12;31.00;50.00
32865;DHT22;19219;44.500;11.188;2023-08-06T15:00:38;31.10;49.90
32865;DHT22;19219;44.500;11.188;2023-08-06T15:03:04;30.90;48.70
32865;DHT22;19219;44.500;11.188;2023-08-06T15:05:29;30.90;49.30
32865;DHT22;19219;44.500;11.188;2023-08-06T15:07:55;30.80;48.90
32865;DHT22;19219;44.500;11.188;2023-08-06T15:10:21;30.80;49.00
32865;DHT22;19219;44.500;11.188;2023-08-06T15:12:47;30.80;48.10
32865;DHT22;19219;44.500;11.188;2023-08-06T15:15:13;30.80;49.00
32865;DHT22;19219;44.500;11.188;2023-08-06T15:17:39;30.70;48.40
32865;DHT22;19219;44.500;11.188;2023-08-06T15:20:05;30.60;48.20
32865;DHT22;19219;44.500;11.188;2023-08-06T15:22:31;30.60;50.00
32865;DHT22;19219;44.500;11.188;2023-08-06T15:25:01;30.70;49.90